Arden, Delaware
Current Conditions -  °F | °C
As of 1:51 PM on Tuesday 21 Oct 2014 (Local Time) from KILG Reporting Station
Overcast Overcast  
Wind Chill: 20°   Ceiling: 4500
Heat Index: 20°   Visibility: 10mi
Dew Point: 10°   Wind: 3mph
Humidity: 52%   Direction: 140°SE
Pressure: 29.82"   Gusts: NA
Location:  39.81°N, 75.49°W
Report Text: KILG 211751Z 14003KT 10SM OVC045 20/10 A2982 RMK AO2 SLP099 T02000100 10200 20094 58021
Loading
Personal Weather Stations






























Interactive Weather Map
Tropical Storm Tracking
New forecast layout! Learn more

10-Day Weather Forecast

Advertisements
Track Severe Weather on mobile